sensor_id;sensor_type;location;lat;lon;timestamp;pressure;altitude;pressure_sealevel;temperature;humidity
57990;BME280;58373;51.824;5.564;2023-10-09T00:00:34;101957.53;;;13.80;100.00
57990;BME280;58373;51.824;5.564;2023-10-09T00:03:05;101951.63;;;13.78;100.00
57990;BME280;58373;51.824;5.564;2023-10-09T00:05:31;101943.94;;;13.77;100.00
57990;BME280;58373;51.824;5.564;2023-10-09T00:08:05;101941.41;;;13.75;100.00
57990;BME280;58373;51.824;5.564;2023-10-09T00:10:30;101937.88;;;13.76;100.00
57990;BME280;58373;51.824;5.564;2023-10-09T00:13:15;101934.34;;;13.77;100.00
57990;BME280;58373;51.824;5.564;2023-10-09T00:15:41;101925.56;;;13.78;100.00
57990;BME280;58373;51.824;5.564;2023-10-09T00:18:07;101930.78;;;13.78;100.00
57990;BME280;58373;51.824;5.564;2023-10-09T00:20:37;101930.91;;;13.77;100.00
57990;BME280;58373;51.824;5.564;2023-10-09T00:23:08;101927.47;;;13.76;100.00
57990;BME280;58373;51.824;5.564;2023-10-09T00:25:47;101926.59;;;13.76;100.00
57990;BME280;58373;51.824;5.564;2023-10-09T00:28:15;101930.06;;;13.76;100.00
57990;BME280;58373;51.824;5.564;2023-10-09T00:30:43;101931.72;;;13.77;100.00
57990;BME280;58373;51.824;5.564;2023-10-09T00:33:09;101932.56;;;13.78;100.00
57990;BME280;58373;51.824;5.564;2023-10-09T00:35:38;101931.59;;;13.79;100.00
57990;BME280;58373;51.824;5.564;2023-10-09T00:38:09;101932.41;;;13.79;100.00
57990;BME280;58373;51.824;5.564;2023-10-09T00:40:48;101937.63;;;13.79;100.00
57990;BME280;58373;51.824;5.564;2023-10-09T00:43:21;101924.72;;;13.78;100.00
57990;BME280;58373;51.824;5.564;2023-10-09T00:45:53;101928.84;;;13.80;100.00
57990;BME280;58373;51.824;5.564;2023-10-09T00:48:18;101929.69;;;13.81;100.00
57990;BME280;58373;51.824;5.564;2023-10-09T00:50:55;101931.59;;;13.79;100.00
57990;BME280;58373;51.824;5.564;2023-10-09T00:53:22;101932.41;;;13.79;100.00
57990;BME280;58373;51.824;5.564;2023-10-09T00:55:56;101928.84;;;13.80;100.00
57990;BME280;58373;51.824;5.564;2023-10-09T00:58:22;101933.25;;;13.80;100.00
57990;BME280;58373;51.824;5.564;2023-10-09T01:00:51;101943.69;;;13.80;100.00
57990;BME280;58373;51.824;5.564;2023-10-09T01:03:18;101937.63;;;13.79;100.00
57990;BME280;58373;51.824;5.564;2023-10-09T01:08:16;101931.47;;;13.80;100.00
57990;BME280;58373;51.824;5.564;2023-10-09T01:10:50;101934.06;;;13.80;100.00
57990;BME280;58373;51.824;5.564;2023-10-09T01:13:21;101933.25;;;13.80;100.00
57990;BME280;58373;51.824;5.564;2023-10-09T01:15:52;101923.66;;;13.80;100.00
57990;BME280;58373;51.824;5.564;2023-10-09T01:18:17;101918.44;;;13.80;100.00
57990;BME280;58373;51.824;5.564;2023-10-09T01:20:45;101913.22;;;13.80;100.00
57990;BME280;58373;51.824;5.564;2023-10-09T01:23:10;101917.59;;;13.80;100.00
57990;BME280;58373;51.824;5.564;2023-10-09T01:25:36;101911.34;;;13.82;100.00
57990;BME280;58373;51.824;5.564;2023-10-09T01:28:10;101921.78;;;13.82;100.00
57990;BME280;58373;51.824;5.564;2023-10-09T01:30:41;101913.00;;;13.84;100.00
57990;BME280;58373;51.824;5.564;2023-10-09T01:33:07;101916.31;;;13.86;100.00
57990;BME280;58373;51.824;5.564;2023-10-09T01:35:40;101900.66;;;13.86;100.00
57990;BME280;58373;51.824;5.564;2023-10-09T01:38:12;101914.38;;;13.88;100.00
57990;BME280;58373;51.824;5.564;2023-10-09T01:40:40;101905.63;;;13.89;100.00
57990;BME280;58373;51.824;5.564;2023-10-09T01:43:05;101902.91;;;13.90;100.00
57990;BME280;58373;51.824;5.564;2023-10-09T01:45:34;101889.72;;;13.92;100.00
57990;BME280;58373;51.824;5.564;2023-10-09T01:48:07;101896.59;;;13.93;100.00
57990;BME280;58373;51.824;5.564;2023-10-09T01:50:33;101898.28;;;13.94;100.00
57990;BME280;58373;51.824;5.564;2023-10-09T01:53:00;101897.34;;;13.95;100.00
57990;BME280;58373;51.824;5.564;2023-10-09T01:55:30;101891.84;;;13.98;100.00
57990;BME280;58373;51.824;5.564;2023-10-09T01:57:59;101896.13;;;13.99;100.00
57990;BME280;58373;51.824;5.564;2023-10-09T02:00:30;101889.03;;;14.01;100.00
57990;BME280;58373;51.824;5.564;2023-10-09T02:02:55;101892.31;;;14.03;100.00
57990;BME280;58373;51.824;5.564;2023-10-09T02:05:20;101888.75;;;14.04;100.00
57990;BME280;58373;51.824;5.564;2023-10-09T02:07:46;101880.00;;;14.05;100.00
57990;BME280;58373;51.824;5.564;2023-10-09T02:10:23;101888.53;;;14.07;100.00
57990;BME280;58373;51.824;5.564;2023-10-09T02:12:58;101884.97;;;14.08;100.00
57990;BME280;58373;51.824;5.564;2023-10-09T02:15:35;101895.19;;;14.11;100.00
57990;BME280;58373;51.824;5.564;2023-10-09T02:20:52;101884.47;;;14.14;100.00
57990;BME280;58373;51.824;5.564;2023-10-09T02:23:31;101882.56;;;14.16;100.00
57990;BME280;58373;51.824;5.564;2023-10-09T02:26:17;101870.25;;;14.18;100.00
57990;BME280;58373;51.824;5.564;2023-10-09T02:28:45;101856.25;;;14.19;100.00
57990;BME280;58373;51.824;5.564;2023-10-09T02:31:17;101847.47;;;14.20;100.00
57990;BME280;58373;51.824;5.564;2023-10-09T02:33:47;101850.78;;;14.22;100.00
57990;BME280;58373;51.824;5.564;2023-10-09T02:36:13;101843.88;;;14.21;100.00
57990;BME280;58373;51.824;5.564;2023-10-09T02:38:38;101842.00;;;14.23;100.00
57990;BME280;58373;51.824;5.564;2023-10-09T02:41:07;101848.88;;;14.24;100.00
57990;BME280;58373;51.824;5.564;2023-10-09T02:43:45;101855.75;;;14.25;100.00
57990;BME280;58373;51.824;5.564;2023-10-09T02:46:37;101857.41;;;14.26;100.00
57990;BME280;58373;51.824;5.564;2023-10-09T02:49:05;101851.13;;;14.29;100.00
57990;BME280;58373;51.824;5.564;2023-10-09T02:51:34;101852.78;;;14.30;100.00
57990;BME280;58373;51.824;5.564;2023-10-09T02:54:06;101852.63;;;14.31;100.00
57990;BME280;58373;51.824;5.564;2023-10-09T02:56:42;101842.06;;;14.33;100.00
57990;BME280;58373;51.824;5.564;2023-10-09T02:59:08;101838.53;;;14.34;100.00
57990;BME280;58373;51.824;5.564;2023-10-09T03:01:34;101832.44;;;14.33;100.00
57990;BME280;58373;51.824;5.564;2023-10-09T03:04:00;101814.19;;;14.33;100.00
57990;BME280;58373;51.824;5.564;2023-10-09T03:06:27;101817.66;;;14.34;100.00
57990;BME280;58373;51.824;5.564;2023-10-09T03:08:56;101815.16;;;14.32;100.00
57990;BME280;58373;51.824;5.564;2023-10-09T03:11:21;101822.00;;;14.33;100.00
57990;BME280;58373;51.824;5.564;2023-10-09T03:13:48;101823.69;;;14.34;100.00
57990;BME280;58373;51.824;5.564;2023-10-09T03:16:13;101832.44;;;14.33;100.00
57990;BME280;58373;51.824;5.564;2023-10-09T03:18:52;101824.63;;;14.33;100.00
57990;BME280;58373;51.824;5.564;2023-10-09T03:21:21;101821.19;;;14.33;100.00
57990;BME280;58373;51.824;5.564;2023-10-09T03:23:47;101821.19;;;14.33;100.00
57990;BME280;58373;51.824;5.564;2023-10-09T03:26:15;101803.75;;;14.33;100.00
57990;BME280;58373;51.824;5.564;2023-10-09T03:28:40;101800.31;;;14.33;100.00
57990;BME280;58373;51.824;5.564;2023-10-09T03:31:08;101806.34;;;14.33;100.00
57990;BME280;58373;51.824;5.564;2023-10-09T03:33:35;101818.47;;;14.34;100.00
57990;BME280;58373;51.824;5.564;2023-10-09T03:36:00;101819.41;;;14.33;100.00
57990;BME280;58373;51.824;5.564;2023-10-09T03:38:26;101823.69;;;14.34;100.00
57990;BME280;58373;51.824;5.564;2023-10-09T03:40:54;101808.03;;;14.34;100.00
57990;BME280;58373;51.824;5.564;2023-10-09T03:43:19;101805.44;;;14.34;100.00
57990;BME280;58373;51.824;5.564;2023-10-09T03:45:46;101804.47;;;14.35;100.00
57990;BME280;58373;51.824;5.564;2023-10-09T03:48:17;101802.00;;;14.34;100.00
57990;BME280;58373;51.824;5.564;2023-10-09T03:50:57;101797.59;;;14.34;100.00
57990;BME280;58373;51.824;5.564;2023-10-09T03:53:35;101794.84;;;14.36;100.00
57990;BME280;58373;51.824;5.564;2023-10-09T03:56:08;101805.28;;;14.36;100.00
57990;BME280;58373;51.824;5.564;2023-10-09T03:58:37;101794.03;;;14.35;100.00
57990;BME280;58373;51.824;5.564;2023-10-09T04:01:07;101790.47;;;14.37;100.00
57990;BME280;58373;51.824;5.564;2023-10-09T04:03:32;101802.81;;;14.34;100.00
57990;BME280;58373;51.824;5.564;2023-10-09T04:06:00;101800.22;;;14.34;100.00
57990;BME280;58373;51.824;5.564;2023-10-09T04:08:25;101793.22;;;14.35;100.00
57990;BME280;58373;51.824;5.564;2023-10-09T04:10:55;101792.38;;;14.34;100.00
57990;BME280;58373;51.824;5.564;2023-10-09T04:13:26;101804.47;;;14.35;100.00
57990;BME280;58373;51.824;5.564;2023-10-09T04:15:58;101828.66;;;14.38;100.00
57990;BME280;58373;51.824;5.564;2023-10-09T04:18:24;101843.34;;;14.39;100.00
57990;BME280;58373;51.824;5.564;2023-10-09T04:20:57;101849.28;;;14.41;100.00
57990;BME280;58373;51.824;5.564;2023-10-09T04:23:41;101844.06;;;14.41;100.00
57990;BME280;58373;51.824;5.564;2023-10-09T04:26:25;101835.28;;;14.42;100.00
57990;BME280;58373;51.824;5.564;2023-10-09T04:28:50;101835.16;;;14.43;100.00
57990;BME280;58373;51.824;5.564;2023-10-09T04:31:18;101840.25;;;14.45;100.00
57990;BME280;58373;51.824;5.564;2023-10-09T04:33:46;101833.16;;;14.47;100.00
57990;BME280;58373;51.824;5.564;2023-10-09T04:36:35;101852.13;;;14.49;100.00
57990;BME280;58373;51.824;5.564;2023-10-09T04:39:11;101848.56;;;14.50;100.00
57990;BME280;58373;51.824;5.564;2023-10-09T04:41:36;101852.72;;;14.52;100.00
57990;BME280;58373;51.824;5.564;2023-10-09T04:44:04;101841.44;;;14.52;100.00
57990;BME280;58373;51.824;5.564;2023-10-09T04:46:48;101851.88;;;14.52;100.00
57990;BME280;58373;51.824;5.564;2023-10-09T04:49:32;101851.88;;;14.52;100.00
57990;BME280;58373;51.824;5.564;2023-10-09T04:52:17;101841.31;;;14.53;100.00
57990;BME280;58373;51.824;5.564;2023-10-09T04:54:58;101840.34;;;14.54;100.00
57990;BME280;58373;51.824;5.564;2023-10-09T04:57:45;101833.34;;;14.55;100.00
57990;BME280;58373;51.824;5.564;2023-10-09T05:00:14;101838.44;;;14.56;100.00
57990;BME280;58373;51.824;5.564;2023-10-09T05:05:23;101816.72;;;14.56;100.00
57990;BME280;58373;51.824;5.564;2023-10-09T05:08:07;101801.06;;;14.56;100.00
57990;BME280;58373;51.824;5.564;2023-10-09T05:10:57;101810.56;;;14.57;100.00
57990;BME280;58373;51.824;5.564;2023-10-09T05:13:22;101821.00;;;14.57;100.00
57990;BME280;58373;51.824;5.564;2023-10-09T05:16:13;101834.91;;;14.57;100.00
57990;BME280;58373;51.824;5.564;2023-10-09T05:18:50;101839.28;;;14.57;100.00
57990;BME280;58373;51.824;5.564;2023-10-09T05:21:24;101839.28;;;14.57;100.00
57990;BME280;58373;51.824;5.564;2023-10-09T05:23:56;101847.81;;;14.59;100.00
57990;BME280;58373;51.824;5.564;2023-10-09T05:26:36;101834.75;;;14.59;100.00
57990;BME280;58373;51.824;5.564;2023-10-09T05:31:49;101832.16;;;14.59;100.00
57990;BME280;58373;51.824;5.564;2023-10-09T05:37:31;101826.66;;;14.62;100.00
57990;BME280;58373;51.824;5.564;2023-10-09T05:40:04;101841.50;;;14.61;100.00
57990;BME280;58373;51.824;5.564;2023-10-09T05:42:41;101837.09;;;14.62;100.00
57990;BME280;58373;51.824;5.564;2023-10-09T05:45:16;101858.00;;;14.62;100.00
57990;BME280;58373;51.824;5.564;2023-10-09T05:47:59;101872.72;;;14.63;100.00
57990;BME280;58373;51.824;5.564;2023-10-09T05:50:37;101873.66;;;14.62;100.00
57990;BME280;58373;51.824;5.564;2023-10-09T05:53:20;101882.22;;;14.64;100.00
57990;BME280;58373;51.824;5.564;2023-10-09T05:56:04;101866.53;;;14.64;100.00
57990;BME280;58373;51.824;5.564;2023-10-09T05:58:48;101854.31;;;14.65;100.00
57990;BME280;58373;51.824;5.564;2023-10-09T06:01:32;101857.75;;;14.65;100.00
57990;BME280;58373;51.824;5.564;2023-10-09T06:04:17;101860.38;;;14.65;100.00
57990;BME280;58373;51.824;5.564;2023-10-09T06:06:43;101881.94;;;14.67;100.00
57990;BME280;58373;51.824;5.564;2023-10-09T06:09:10;101885.50;;;14.66;100.00
57990;BME280;58373;51.824;5.564;2023-10-09T06:11:35;101894.19;;;14.67;100.00
57990;BME280;58373;51.824;5.564;2023-10-09T06:14:03;101881.00;;;14.68;100.00
57990;BME280;58373;51.824;5.564;2023-10-09T06:16:29;101878.41;;;14.68;100.00
57990;BME280;58373;51.824;5.564;2023-10-09T06:19:06;101899.28;;;14.68;100.00
57990;BME280;58373;51.824;5.564;2023-10-09T06:21:37;101887.88;;;14.69;100.00
57990;BME280;58373;51.824;5.564;2023-10-09T06:24:08;101883.34;;;14.71;100.00
57990;BME280;58373;51.824;5.564;2023-10-09T06:26:43;101878.13;;;14.71;100.00
57990;BME280;58373;51.824;5.564;2023-10-09T06:29:23;101859.84;;;14.71;100.00
57990;BME280;58373;51.824;5.564;2023-10-09T06:32:01;101844.88;;;14.73;100.00
57990;BME280;58373;51.824;5.564;2023-10-09T06:34:44;101843.22;;;14.72;100.00
57990;BME280;58373;51.824;5.564;2023-10-09T06:37:11;101834.44;;;14.73;100.00
57990;BME280;58373;51.824;5.564;2023-10-09T06:39:59;101840.50;;;14.74;100.00
57990;BME280;58373;51.824;5.564;2023-10-09T06:42:25;101855.31;;;14.73;100.00
57990;BME280;58373;51.824;5.564;2023-10-09T06:45:10;101865.78;;;14.73;100.00
57990;BME280;58373;51.824;5.564;2023-10-09T06:47:38;101853.66;;;14.72;100.00
57990;BME280;58373;51.824;5.564;2023-10-09T06:50:10;101851.06;;;14.72;100.00
57990;BME280;58373;51.824;5.564;2023-10-09T06:52:48;101851.88;;;14.73;100.00
57990;BME280;58373;51.824;5.564;2023-10-09T06:55:25;101850.09;;;14.73;100.00
57990;BME280;58373;51.824;5.564;2023-10-09T06:58:14;101841.34;;;14.74;100.00
57990;BME280;58373;51.824;5.564;2023-10-09T07:00:41;101818.66;;;14.75;100.00
57990;BME280;58373;51.824;5.564;2023-10-09T07:03:25;101835.16;;;14.75;100.00
57990;BME280;58373;51.824;5.564;2023-10-09T07:06:07;101834.19;;;14.76;100.00
57990;BME280;58373;51.824;5.564;2023-10-09T07:08:49;101877.50;;;14.79;100.00
57990;BME280;58373;51.824;5.564;2023-10-09T07:11:34;101871.19;;;14.81;100.00
57990;BME280;58373;51.824;5.564;2023-10-09T07:14:09;101865.03;;;14.82;100.00
57990;BME280;58373;51.824;5.564;2023-10-09T07:16:54;101877.72;;;14.87;100.00
57990;BME280;58373;51.824;5.564;2023-10-09T07:19:29;101881.81;;;14.90;100.00
57990;BME280;58373;51.824;5.564;2023-10-09T07:22:00;101904.28;;;14.92;100.00
57990;BME280;58373;51.824;5.564;2023-10-09T07:24:29;101908.28;;;14.96;100.00
57990;BME280;58373;51.824;5.564;2023-10-09T07:27:08;101909.13;;;14.97;100.00
57990;BME280;58373;51.824;5.564;2023-10-09T07:29:37;101915.72;;;15.01;100.00
57990;BME280;58373;51.824;5.564;2023-10-09T07:32:13;101916.44;;;15.03;100.00
57990;BME280;58373;51.824;5.564;2023-10-09T07:34:44;101907.75;;;15.02;100.00
57990;BME280;58373;51.824;5.564;2023-10-09T07:37:22;101904.06;;;15.05;100.00
57990;BME280;58373;51.824;5.564;2023-10-09T07:39:48;101902.28;;;15.05;100.00
57990;BME280;58373;51.824;5.564;2023-10-09T07:42:22;101904.78;;;15.07;100.00
57990;BME280;58373;51.824;5.564;2023-10-09T07:45:05;101906.41;;;15.08;100.00
57990;BME280;58373;51.824;5.564;2023-10-09T07:47:50;101893.13;;;15.11;100.00
57990;BME280;58373;51.824;5.564;2023-10-09T07:50:36;101861.50;;;15.14;100.00
57990;BME280;58373;51.824;5.564;2023-10-09T07:53:14;101855.31;;;15.15;100.00
57990;BME280;58373;51.824;5.564;2023-10-09T07:55:55;101838.69;;;15.16;100.00
57990;BME280;58373;51.824;5.564;2023-10-09T07:58:22;101837.72;;;15.17;100.00
57990;BME280;58373;51.824;5.564;2023-10-09T08:00:59;101841.88;;;15.20;100.00
57990;BME280;58373;51.824;5.564;2023-10-09T08:03:42;101829.50;;;15.22;100.00
57990;BME280;58373;51.824;5.564;2023-10-09T08:06:11;101805.00;;;15.23;100.00
57990;BME280;58373;51.824;5.564;2023-10-09T08:08:55;101810.81;;;15.26;100.00
57990;BME280;58373;51.824;5.564;2023-10-09T08:11:44;101816.59;;;15.30;100.00
57990;BME280;58373;51.824;5.564;2023-10-09T08:14:10;101826.66;;;15.34;100.00
57990;BME280;58373;51.824;5.564;2023-10-09T08:16:55;101820.22;;;15.38;100.00
57990;BME280;58373;51.824;5.564;2023-10-09T08:19:39;101838.66;;;15.47;100.00
57990;BME280;58373;51.824;5.564;2023-10-09T08:22:20;101850.25;;;15.54;100.00
57990;BME280;58373;51.824;5.564;2023-10-09T08:24:48;101870.66;;;15.60;100.00
57990;BME280;58373;51.824;5.564;2023-10-09T08:30:01;101895.78;;;15.72;100.00
57990;BME280;58373;51.824;5.564;2023-10-09T08:32:45;101888.38;;;15.77;100.00
57990;BME280;58373;51.824;5.564;2023-10-09T08:35:36;101900.19;;;15.81;100.00
57990;BME280;58373;51.824;5.564;2023-10-09T08:38:12;101886.72;;;15.86;100.00
57990;BME280;58373;51.824;5.564;2023-10-09T08:40:39;101893.22;;;15.91;100.00
57990;BME280;58373;51.824;5.564;2023-10-09T08:43:15;101895.28;;;15.98;100.00
57990;BME280;58373;51.824;5.564;2023-10-09T08:45:44;101900.28;;;16.01;100.00
57990;BME280;58373;51.824;5.564;2023-10-09T08:48:10;101898.91;;;16.06;100.00
57990;BME280;58373;51.824;5.564;2023-10-09T08:50:40;101915.16;;;16.10;100.00
57990;BME280;58373;51.824;5.564;2023-10-09T08:53:07;101912.97;;;16.15;100.00
57990;BME280;58373;51.824;5.564;2023-10-09T08:55:32;101913.38;;;16.20;100.00
57990;BME280;58373;51.824;5.564;2023-10-09T08:57:57;101913.81;;;16.25;100.00
57990;BME280;58373;51.824;5.564;2023-10-09T09:00:23;101917.81;;;16.29;100.00
57990;BME280;58373;51.824;5.564;2023-10-09T09:02:55;101916.44;;;16.35;100.00
57990;BME280;58373;51.824;5.564;2023-10-09T09:05:20;101917.69;;;16.40;100.00
57990;BME280;58373;51.824;5.564;2023-10-09T09:07:46;101922.38;;;16.46;100.00
57990;BME280;58373;51.824;5.564;2023-10-09T09:10:11;101926.38;;;16.51;100.00
57990;BME280;58373;51.824;5.564;2023-10-09T09:12:45;101932.72;;;16.58;100.00
57990;BME280;58373;51.824;5.564;2023-10-09T09:15:14;101936.72;;;16.62;100.00
57990;BME280;58373;51.824;5.564;2023-10-09T09:17:44;101938.94;;;16.66;100.00
57990;BME280;58373;51.824;5.564;2023-10-09T09:22:51;101947.78;;;16.75;100.00
57990;BME280;58373;51.824;5.564;2023-10-09T09:25:17;101942.00;;;16.81;100.00
57990;BME280;58373;51.824;5.564;2023-10-09T09:27:45;101944.06;;;16.87;100.00
57990;BME280;58373;51.824;5.564;2023-10-09T09:30:34;101942.53;;;16.94;100.00
57990;BME280;58373;51.824;5.564;2023-10-09T09:36:03;101948.88;;;17.02;100.00
57990;BME280;58373;51.824;5.564;2023-10-09T09:38:31;101950.25;;;17.06;100.00
57990;BME280;58373;51.824;5.564;2023-10-09T09:41:07;101953.28;;;17.11;100.00
57990;BME280;58373;51.824;5.564;2023-10-09T09:43:32;101952.03;;;17.15;100.00
57990;BME280;58373;51.824;5.564;2023-10-09T09:46:00;101947.19;;;17.20;100.00
57990;BME280;58373;51.824;5.564;2023-10-09T09:48:29;101960.69;;;17.25;100.00
57990;BME280;58373;51.824;5.564;2023-10-09T09:50:54;101964.03;;;17.27;100.00
57990;BME280;58373;51.824;5.564;2023-10-09T09:53:19;101961.09;;;17.30;100.00
57990;BME280;58373;51.824;5.564;2023-10-09T09:55:51;101970.34;;;17.34;100.00
57990;BME280;58373;51.824;5.564;2023-10-09T09:58:21;101968.69;;;17.33;100.00
57990;BME280;58373;51.824;5.564;2023-10-09T10:00:48;101968.13;;;17.39;100.00
57990;BME280;58373;51.824;5.564;2023-10-09T10:05:43;101963.97;;;17.46;100.00
57990;BME280;58373;51.824;5.564;2023-10-09T10:08:11;101965.34;;;17.50;100.00
57990;BME280;58373;51.824;5.564;2023-10-09T10:10:40;101971.94;;;17.55;100.00
57990;BME280;58373;51.824;5.564;2023-10-09T10:16:05;101958.94;;;17.63;100.00
57990;BME280;58373;51.824;5.564;2023-10-09T10:18:58;101955.06;;;17.67;100.00
57990;BME280;58373;51.824;5.564;2023-10-09T10:21:46;101966.91;;;17.71;100.00
57990;BME280;58373;51.824;5.564;2023-10-09T10:27:22;101966.09;;;17.80;100.00
57990;BME280;58373;51.824;5.564;2023-10-09T10:35:17;101957.16;;;18.00;100.00
57990;BME280;58373;51.824;5.564;2023-10-09T10:37:45;101959.09;;;17.98;100.00
57990;BME280;58373;51.824;5.564;2023-10-09T10:40:30;101960.72;;;18.09;100.00
57990;BME280;58373;51.824;5.564;2023-10-09T10:43:04;101959.06;;;18.08;100.00
57990;BME280;58373;51.824;5.564;2023-10-09T10:45:44;101953.66;;;18.10;100.00
57990;BME280;58373;51.824;5.564;2023-10-09T10:48:09;101960.94;;;18.16;100.00
57990;BME280;58373;51.824;5.564;2023-10-09T10:50:57;101962.50;;;18.36;100.00
57990;BME280;58373;51.824;5.564;2023-10-09T10:53:23;101967.94;;;18.25;100.00
57990;BME280;58373;51.824;5.564;2023-10-09T10:55:56;101975.41;;;18.29;100.00
57990;BME280;58373;51.824;5.564;2023-10-09T10:58:22;101972.19;;;18.36;100.00
57990;BME280;58373;51.824;5.564;2023-10-09T11:01:00;101967.16;;;18.42;100.00
57990;BME280;58373;51.824;5.564;2023-10-09T11:03:39;101965.19;;;18.44;100.00
57990;BME280;58373;51.824;5.564;2023-10-09T11:06:27;101961.69;;;18.53;100.00
57990;BME280;58373;51.824;5.564;2023-10-09T11:09:03;101968.66;;;18.63;100.00
57990;BME280;58373;51.824;5.564;2023-10-09T11:11:49;101964.50;;;18.70;100.00
57990;BME280;58373;51.824;5.564;2023-10-09T11:14:15;101955.19;;;18.75;100.00
57990;BME280;58373;51.824;5.564;2023-10-09T11:16:40;101965.91;;;18.82;100.00
57990;BME280;58373;51.824;5.564;2023-10-09T11:19:21;101965.00;;;18.91;100.00
57990;BME280;58373;51.824;5.564;2023-10-09T11:21:56;101955.66;;;18.97;100.00
57990;BME280;58373;51.824;5.564;2023-10-09T11:24:46;101963.63;;;19.05;100.00
57990;BME280;58373;51.824;5.564;2023-10-09T11:27:12;101962.69;;;19.14;100.00
57990;BME280;58373;51.824;5.564;2023-10-09T11:29:49;101962.19;;;19.10;100.00
57990;BME280;58373;51.824;5.564;2023-10-09T11:32:21;101949.00;;;19.28;98.27
57990;BME280;58373;51.824;5.564;2023-10-09T11:34:49;101955.59;;;19.06;98.13
57990;BME280;58373;51.824;5.564;2023-10-09T11:37:27;101954.75;;;19.06;97.75
57990;BME280;58373;51.824;5.564;2023-10-09T11:39:56;101955.88;;;19.03;97.17
57990;BME280;58373;51.824;5.564;2023-10-09T11:42:22;101954.16;;;19.12;94.96
57990;BME280;58373;51.824;5.564;2023-10-09T11:45:01;101959.13;;;18.97;95.95
57990;BME280;58373;51.824;5.564;2023-10-09T11:47:36;101957.56;;;19.04;95.83
57990;BME280;58373;51.824;5.564;2023-10-09T11:50:01;101959.00;;;18.99;96.36
57990;BME280;58373;51.824;5.564;2023-10-09T11:52:55;101951.22;;;18.97;96.81
57990;BME280;58373;51.824;5.564;2023-10-09T11:55:34;101957.84;;;19.01;96.44
57990;BME280;58373;51.824;5.564;2023-10-09T11:58:01;101953.94;;;19.05;96.75
57990;BME280;58373;51.824;5.564;2023-10-09T12:00:27;101961.38;;;19.10;96.35
57990;BME280;58373;51.824;5.564;2023-10-09T12:02:56;101960.22;;;19.13;95.68
57990;BME280;58373;51.824;5.564;2023-10-09T12:05:21;101961.88;;;19.14;95.72
57990;BME280;58373;51.824;5.564;2023-10-09T12:07:48;101947.81;;;19.23;94.88
57990;BME280;58373;51.824;5.564;2023-10-09T12:10:19;101958.34;;;19.23;95.13
57990;BME280;58373;51.824;5.564;2023-10-09T12:12:50;101954.47;;;19.35;94.01
57990;BME280;58373;51.824;5.564;2023-10-09T12:15:15;101954.75;;;19.32;94.31
57990;BME280;58373;51.824;5.564;2023-10-09T12:17:43;101944.97;;;19.42;93.39
57990;BME280;58373;51.824;5.564;2023-10-09T12:20:09;101943.16;;;19.43;92.04
57990;BME280;58373;51.824;5.564;2023-10-09T12:22:54;101939.69;;;19.42;93.86
57990;BME280;58373;51.824;5.564;2023-10-09T12:25:25;101934.81;;;19.47;93.33
57990;BME280;58373;51.824;5.564;2023-10-09T12:27:51;101931.88;;;19.50;93.84
57990;BME280;58373;51.824;5.564;2023-10-09T12:30:19;101923.66;;;19.53;92.30
57990;BME280;58373;51.824;5.564;2023-10-09T12:32:51;101933.81;;;19.48;92.38
57990;BME280;58373;51.824;5.564;2023-10-09T12:35:17;101927.72;;;19.48;92.19
57990;BME280;58373;51.824;5.564;2023-10-09T12:37:42;101926.91;;;19.47;92.43
57990;BME280;58373;51.824;5.564;2023-10-09T12:40:08;101923.28;;;19.48;92.46
57990;BME280;58373;51.824;5.564;2023-10-09T12:42:35;101924.63;;;19.52;92.21
57990;BME280;58373;51.824;5.564;2023-10-09T12:45:01;101921.00;;;19.53;92.65
57990;BME280;58373;51.824;5.564;2023-10-09T12:47:33;101908.50;;;19.55;92.41
57990;BME280;58373;51.824;5.564;2023-10-09T12:49:58;101922.53;;;19.56;91.75
57990;BME280;58373;51.824;5.564;2023-10-09T12:52:24;101923.47;;;19.55;92.12
57990;BME280;58373;51.824;5.564;2023-10-09T12:54:54;101928.44;;;19.58;90.66
57990;BME280;58373;51.824;5.564;2023-10-09T12:57:19;101927.44;;;19.51;91.66
57990;BME280;58373;51.824;5.564;2023-10-09T12:59:45;101928.25;;;19.51;91.43
57990;BME280;58373;51.824;5.564;2023-10-09T13:02:13;101927.91;;;19.54;90.88
57990;BME280;58373;51.824;5.564;2023-10-09T13:04:53;101925.38;;;19.62;90.51
57990;BME280;58373;51.824;5.564;2023-10-09T13:07:18;101932.88;;;19.57;91.24
57990;BME280;58373;51.824;5.564;2023-10-09T13:09:47;101934.91;;;19.63;91.14
57990;BME280;58373;51.824;5.564;2023-10-09T13:12:32;101946.09;;;19.66;91.00
57990;BME280;58373;51.824;5.564;2023-10-09T13:14:57;101938.22;;;19.66;89.81
57990;BME280;58373;51.824;5.564;2023-10-09T13:17:22;101944.47;;;19.65;89.25
57990;BME280;58373;51.824;5.564;2023-10-09T13:19:51;101957.63;;;19.65;89.69
57990;BME280;58373;51.824;5.564;2023-10-09T13:22:17;101958.59;;;19.63;89.69
57990;BME280;58373;51.824;5.564;2023-10-09T13:24:42;101949.41;;;19.68;90.46
57990;BME280;58373;51.824;5.564;2023-10-09T13:27:08;101953.38;;;19.72;90.33
57990;BME280;58373;51.824;5.564;2023-10-09T13:29:35;101951.78;;;19.79;89.42
57990;BME280;58373;51.824;5.564;2023-10-09T13:32:00;101959.00;;;19.77;89.79
57990;BME280;58373;51.824;5.564;2023-10-09T13:34:27;101951.91;;;19.77;86.74
57990;BME280;58373;51.824;5.564;2023-10-09T13:36:53;101948.47;;;19.77;88.91
57990;BME280;58373;51.824;5.564;2023-10-09T13:39:18;101944.84;;;19.78;88.98
57990;BME280;58373;51.824;5.564;2023-10-09T13:44:15;101949.28;;;19.77;88.43
57990;BME280;58373;51.824;5.564;2023-10-09T13:46:40;101948.78;;;19.74;86.16